Time;durP1;ratioP1;P1;durP2;ratioP2;P2;SDS_P1;SDS_P2;PMS_P1;PMS_P2;Temp;Humidity;BMP_temperature;BMP_pressure;BME280_temperature;BME280_humidity;BME280_pressure;Samples;Min_cycle;Max_cycle;Signal;HPM_P1;HPM_P2
2023/07/11 00:00:15;;;;;;;11.80;10.60;;;;;;;;;;112631;1232;59182;-71
2023/07/11 00:03:01;;;;;;;11.50;10.00;;;;;;;;;;112545;1230;59186;-71
2023/07/11 00:05:27;;;;;;;12.30;11.00;;;;;;;;;;112612;1231;58933;-71
2023/07/11 00:07:53;;;;;;;12.20;11.00;;;;;;;;;;112590;1229;59228;-72
2023/07/11 00:10:19;;;;;;;11.60;10.50;;;;;;;;;;112585;1231;59332;-71
2023/07/11 00:12:45;;;;;;;11.50;10.40;;;;;;;;;;112613;1232;58838;-71
2023/07/11 00:15:13;;;;;;;13.50;11.30;;;;;;;;;;112581;1230;58955;-71
2023/07/11 00:17:39;;;;;;;13.50;11.70;;;;;;;;;;112611;1230;58946;-71
2023/07/11 00:20:05;;;;;;;11.70;10.60;;;;;;;;;;112278;1231;59132;-71
2023/07/11 00:22:31;;;;;;;12.30;11.00;;;;;;;;;;112630;1231;58902;-71
2023/07/11 00:24:57;;;;;;;11.90;10.80;;;;;;;;;;112619;1232;58948;-72
2023/07/11 00:27:23;;;;;;;13.00;11.60;;;;;;;;;;112589;1230;58906;-71
2023/07/11 00:29:49;;;;;;;11.90;10.70;;;;;;;;;;112519;1231;59197;-71
2023/07/11 00:32:15;;;;;;;12.20;11.00;;;;;;;;;;112579;1234;58935;-71
2023/07/11 00:34:41;;;;;;;12.70;11.00;;;;;;;;;;112643;1231;58926;-71
2023/07/11 00:37:07;;;;;;;12.80;11.10;;;;;;;;;;112640;1231;59256;-71
2023/07/11 00:39:34;;;;;;;12.80;11.50;;;;;;;;;;112565;1230;58907;-71
2023/07/11 00:42:00;;;;;;;13.00;11.80;;;;;;;;;;112675;1231;58928;-71
2023/07/11 00:44:26;;;;;;;14.40;13.00;;;;;;;;;;112645;1232;58959;-71
2023/07/11 00:46:52;;;;;;;14.20;11.80;;;;;;;;;;112631;1232;58890;-71
2023/07/11 00:49:19;;;;;;;16.70;14.90;;;;;;;;;;112574;1232;58935;-71
2023/07/11 00:51:48;;;;;;;15.90;14.20;;;;;;;;;;112628;1230;58911;-70
2023/07/11 00:54:19;;;;;;;15.50;14.00;;;;;;;;;;112565;1231;58931;-70
2023/07/11 00:56:46;;;;;;;20.20;15.20;;;;;;;;;;112624;1230;61945;-70
2023/07/11 00:59:14;;;;;;;18.10;16.20;;;;;;;;;;112643;1230;59155;-70
2023/07/11 01:01:41;;;;;;;15.70;13.40;;;;;;;;;;112266;1231;59064;-70
2023/07/11 01:04:07;;;;;;;14.80;12.90;;;;;;;;;;112253;1232;58932;-71
2023/07/11 01:06:33;;;;;;;13.60;12.40;;;;;;;;;;112588;1231;58940;-71
2023/07/11 01:08:59;;;;;;;13.90;12.30;;;;;;;;;;112593;1232;59068;-71
2023/07/11 01:11:26;;;;;;;13.90;12.70;;;;;;;;;;112625;1231;59066;-71
2023/07/11 01:13:52;;;;;;;14.20;12.70;;;;;;;;;;112584;1231;58916;-71
2023/07/11 01:16:18;;;;;;;15.20;13.30;;;;;;;;;;112608;1230;58976;-71
2023/07/11 01:18:44;;;;;;;15.40;13.60;;;;;;;;;;112560;1230;59360;-71
2023/07/11 01:21:14;;;;;;;14.20;12.90;;;;;;;;;;112609;1231;58955;-70
2023/07/11 01:23:39;;;;;;;15.00;13.40;;;;;;;;;;112612;1231;58876;-71
2023/07/11 01:26:06;;;;;;;14.90;13.40;;;;;;;;;;112349;1230;59198;-71
2023/07/11 01:28:32;;;;;;;15.30;14.00;;;;;;;;;;112608;1230;59001;-71
2023/07/11 01:30:57;;;;;;;15.80;14.10;;;;;;;;;;112579;1233;58946;-71
2023/07/11 01:33:25;;;;;;;16.80;15.20;;;;;;;;;;112548;1230;59152;-71
2023/07/11 01:35:52;;;;;;;16.70;14.90;;;;;;;;;;112588;1232;58963;-71
2023/07/11 01:38:18;;;;;;;16.00;14.30;;;;;;;;;;112619;1230;58935;-71
2023/07/11 01:40:45;;;;;;;15.80;14.40;;;;;;;;;;112575;1232;59313;-71
2023/07/11 01:43:11;;;;;;;16.70;15.10;;;;;;;;;;112633;1230;58738;-71
2023/07/11 01:45:37;;;;;;;18.60;16.30;;;;;;;;;;112608;1230;59354;-71
2023/07/11 01:48:02;;;;;;;18.10;16.40;;;;;;;;;;112672;1229;58967;-71
2023/07/11 01:50:28;;;;;;;16.90;15.20;;;;;;;;;;112575;1230;58896;-70
2023/07/11 01:52:54;;;;;;;16.30;14.80;;;;;;;;;;112596;1230;58977;-70
2023/07/11 01:55:20;;;;;;;16.00;14.60;;;;;;;;;;112643;1231;59022;-70
2023/07/11 01:57:45;;;;;;;15.70;14.30;;;;;;;;;;112616;1231;58881;-70
2023/07/11 02:00:29;;;;;;;15.70;14.10;;;;;;;;;;112599;1230;59021;-71
2023/07/11 02:02:55;;;;;;;17.20;14.90;;;;;;;;;;112594;1230;58887;-71
2023/07/11 02:05:21;;;;;;;16.00;14.40;;;;;;;;;;112582;1231;58867;-71
2023/07/11 02:07:47;;;;;;;16.20;14.60;;;;;;;;;;112608;1230;59017;-71
2023/07/11 02:10:13;;;;;;;15.90;14.50;;;;;;;;;;112615;1232;58951;-70
2023/07/11 02:12:38;;;;;;;16.40;15.00;;;;;;;;;;112588;1230;58903;-71
2023/07/11 02:15:04;;;;;;;15.90;14.40;;;;;;;;;;112605;1232;58993;-70
2023/07/11 02:17:30;;;;;;;14.70;13.30;;;;;;;;;;112664;1230;58984;-70
2023/07/11 02:19:56;;;;;;;16.10;14.70;;;;;;;;;;112630;1230;59046;-70
2023/07/11 02:22:22;;;;;;;16.00;14.50;;;;;;;;;;112606;1230;58950;-70
2023/07/11 02:24:48;;;;;;;18.10;16.20;;;;;;;;;;112575;1230;59132;-70
2023/07/11 02:27:13;;;;;;;16.90;15.10;;;;;;;;;;112689;1230;58890;-70
2023/07/11 02:29:39;;;;;;;18.50;16.70;;;;;;;;;;112589;1234;58947;-70
2023/07/11 02:32:05;;;;;;;19.50;17.70;;;;;;;;;;112624;1230;58971;-70
2023/07/11 02:34:30;;;;;;;18.50;16.90;;;;;;;;;;112585;1230;58969;-71
2023/07/11 02:36:56;;;;;;;16.90;15.00;;;;;;;;;;112605;1230;59029;-71
2023/07/11 02:39:22;;;;;;;16.30;14.70;;;;;;;;;;112616;1230;59400;-71
2023/07/11 02:41:48;;;;;;;16.50;15.00;;;;;;;;;;112646;1230;58928;-71
2023/07/11 02:44:14;;;;;;;15.70;14.30;;;;;;;;;;112560;1230;58875;-71
2023/07/11 02:46:40;;;;;;;15.90;14.30;;;;;;;;;;112648;1230;58967;-71
2023/07/11 02:49:08;;;;;;;15.80;14.30;;;;;;;;;;112621;1230;58999;-70
2023/07/11 02:51:35;;;;;;;16.50;14.90;;;;;;;;;;112615;1230;58844;-70
2023/07/11 02:54:00;;;;;;;17.30;15.70;;;;;;;;;;112554;1230;59171;-70
2023/07/11 02:56:26;;;;;;;17.90;16.30;;;;;;;;;;112588;1230;58903;-71
2023/07/11 02:58:52;;;;;;;17.50;15.80;;;;;;;;;;112587;1230;58962;-70
2023/07/11 03:01:18;;;;;;;16.40;14.80;;;;;;;;;;112250;1230;59250;-70
2023/07/11 03:03:43;;;;;;;17.30;15.80;;;;;;;;;;112617;1230;59173;-70
2023/07/11 03:06:09;;;;;;;17.40;15.90;;;;;;;;;;112576;1232;58949;-70
2023/07/11 03:08:35;;;;;;;17.30;15.60;;;;;;;;;;112586;1232;58877;-70
2023/07/11 03:11:01;;;;;;;16.00;14.50;;;;;;;;;;112622;1230;59156;-71
2023/07/11 03:13:27;;;;;;;17.30;15.70;;;;;;;;;;112614;1230;58951;-71
2023/07/11 03:15:52;;;;;;;16.00;14.60;;;;;;;;;;112596;1230;59017;-71
2023/07/11 03:18:18;;;;;;;16.40;15.00;;;;;;;;;;112644;1230;59071;-71
2023/07/11 03:20:44;;;;;;;15.80;14.40;;;;;;;;;;112579;1231;58927;-72
2023/07/11 03:23:11;;;;;;;16.40;14.90;;;;;;;;;;112640;1232;59233;-71
2023/07/11 03:25:36;;;;;;;14.70;13.40;;;;;;;;;;112576;1230;60541;-71
2023/07/11 03:28:02;;;;;;;16.30;13.70;;;;;;;;;;112576;1230;59149;-71
2023/07/11 03:30:30;;;;;;;15.00;13.70;;;;;;;;;;112620;1230;58788;-71
2023/07/11 03:32:55;;;;;;;15.80;14.40;;;;;;;;;;112590;1232;59049;-71
2023/07/11 03:35:21;;;;;;;13.80;12.60;;;;;;;;;;112592;1230;58869;-72
2023/07/11 03:37:47;;;;;;;13.60;12.30;;;;;;;;;;112591;1230;59343;-72
2023/07/11 03:40:13;;;;;;;13.70;11.50;;;;;;;;;;112556;1230;59045;-72
2023/07/11 03:42:39;;;;;;;13.00;11.80;;;;;;;;;;112626;1233;58875;-72
2023/07/11 03:45:05;;;;;;;12.50;11.30;;;;;;;;;;112652;1230;58975;-71
2023/07/11 03:47:31;;;;;;;16.70;11.90;;;;;;;;;;112259;1231;59747;-72
2023/07/11 03:49:56;;;;;;;12.10;10.90;;;;;;;;;;112615;1230;58968;-70
2023/07/11 03:52:22;;;;;;;13.30;11.30;;;;;;;;;;112616;1230;59173;-70
2023/07/11 03:54:48;;;;;;;13.20;11.80;;;;;;;;;;112650;1230;58860;-70
2023/07/11 03:57:15;;;;;;;11.90;10.90;;;;;;;;;;112623;1230;58826;-70
2023/07/11 03:59:41;;;;;;;12.30;11.10;;;;;;;;;;112577;1231;58910;-70
2023/07/11 04:02:07;;;;;;;13.50;11.20;;;;;;;;;;112617;1230;58928;-70
2023/07/11 04:04:33;;;;;;;12.60;11.40;;;;;;;;;;112312;1232;59036;-70
2023/07/11 04:06:58;;;;;;;13.50;12.30;;;;;;;;;;112686;1230;58904;-70
2023/07/11 04:09:24;;;;;;;12.40;11.40;;;;;;;;;;112592;1230;59711;-70
2023/07/11 04:11:50;;;;;;;12.80;11.70;;;;;;;;;;112609;1230;58880;-70
2023/07/11 04:14:16;;;;;;;13.30;12.20;;;;;;;;;;112605;1230;59290;-70
2023/07/11 04:16:41;;;;;;;13.80;12.40;;;;;;;;;;112604;1231;58898;-70
2023/07/11 04:19:07;;;;;;;14.80;13.50;;;;;;;;;;112665;1231;58922;-70
2023/07/11 04:21:33;;;;;;;13.30;12.10;;;;;;;;;;112576;1230;58916;-71
2023/07/11 04:23:59;;;;;;;11.60;10.50;;;;;;;;;;112626;1230;58985;-71
2023/07/11 04:26:26;;;;;;;11.20;10.20;;;;;;;;;;112638;1230;60777;-72
2023/07/11 04:28:51;;;;;;;13.60;10.80;;;;;;;;;;112633;1230;58854;-70
2023/07/11 04:31:17;;;;;;;12.10;10.70;;;;;;;;;;112552;1230;59202;-71
2023/07/11 04:33:43;;;;;;;11.30;10.10;;;;;;;;;;112230;1230;59008;-71
2023/07/11 04:36:10;;;;;;;10.80;9.80;;;;;;;;;;112644;1231;58938;-71
2023/07/11 04:38:36;;;;;;;11.00;9.80;;;;;;;;;;112555;1232;58920;-70
2023/07/11 04:41:03;;;;;;;9.90;9.10;;;;;;;;;;112609;1230;58914;-70
2023/07/11 04:43:29;;;;;;;10.00;9.00;;;;;;;;;;112610;1230;59180;-72
2023/07/11 04:45:55;;;;;;;9.10;8.30;;;;;;;;;;112585;1230;59227;-70
2023/07/11 04:48:21;;;;;;;10.30;9.20;;;;;;;;;;112640;1230;59183;-71
2023/07/11 04:50:47;;;;;;;9.40;8.50;;;;;;;;;;112593;1231;59012;-72
2023/07/11 04:53:12;;;;;;;9.10;8.20;;;;;;;;;;112250;1234;59070;-70
2023/07/11 04:55:38;;;;;;;12.10;9.00;;;;;;;;;;112575;1230;58887;-71
2023/07/11 04:58:04;;;;;;;8.90;8.20;;;;;;;;;;112569;1230;58930;-71
2023/07/11 05:00:30;;;;;;;9.30;8.40;;;;;;;;;;112630;1229;58887;-71
2023/07/11 05:02:56;;;;;;;9.00;8.20;;;;;;;;;;112640;1230;58890;-72
2023/07/11 05:05:22;;;;;;;8.80;8.00;;;;;;;;;;112597;1230;59268;-71
2023/07/11 05:07:47;;;;;;;8.90;8.10;;;;;;;;;;112609;1229;58867;-71
2023/07/11 05:10:13;;;;;;;8.60;7.80;;;;;;;;;;112638;1233;58974;-72
2023/07/11 05:12:39;;;;;;;8.80;8.10;;;;;;;;;;112601;1232;59050;-72
2023/07/11 05:15:06;;;;;;;8.30;7.60;;;;;;;;;;112560;1229;58973;-72
2023/07/11 05:17:31;;;;;;;8.10;7.40;;;;;;;;;;112608;1230;58892;-71
2023/07/11 05:19:57;;;;;;;8.60;7.40;;;;;;;;;;112618;1229;58953;-71
2023/07/11 05:22:24;;;;;;;8.70;7.50;;;;;;;;;;112605;1230;58976;-72
2023/07/11 05:24:49;;;;;;;7.50;6.80;;;;;;;;;;112586;1230;59069;-71
2023/07/11 05:27:15;;;;;;;7.30;6.70;;;;;;;;;;112612;1230;59014;-70
2023/07/11 05:29:41;;;;;;;8.00;7.30;;;;;;;;;;112600;1231;59055;-71
2023/07/11 05:32:07;;;;;;;9.10;7.60;;;;;;;;;;112639;1233;58872;-70
2023/07/11 05:34:32;;;;;;;8.10;7.40;;;;;;;;;;112572;1230;59115;-70
2023/07/11 05:36:58;;;;;;;9.10;7.30;;;;;;;;;;112626;1230;58933;-71
2023/07/11 05:39:24;;;;;;;7.80;7.00;;;;;;;;;;112578;1230;58901;-71
2023/07/11 05:41:51;;;;;;;7.20;6.60;;;;;;;;;;112609;1230;59012;-72
2023/07/11 05:44:17;;;;;;;8.80;7.80;;;;;;;;;;112598;1230;58944;-71
2023/07/11 05:46:43;;;;;;;8.10;7.40;;;;;;;;;;112630;1230;58935;-72
2023/07/11 05:49:09;;;;;;;7.60;6.80;;;;;;;;;;112584;1229;59341;-71
2023/07/11 05:51:35;;;;;;;7.60;6.90;;;;;;;;;;112626;1231;58997;-72
2023/07/11 05:54:01;;;;;;;8.40;6.50;;;;;;;;;;112396;1231;59109;-72
2023/07/11 05:56:27;;;;;;;7.40;6.70;;;;;;;;;;112690;1231;58946;-72
2023/07/11 05:58:54;;;;;;;7.30;6.70;;;;;;;;;;112576;1230;59588;-71
2023/07/11 06:01:21;;;;;;;6.30;5.80;;;;;;;;;;112607;1229;58871;-71
2023/07/11 06:03:51;;;;;;;7.40;6.70;;;;;;;;;;112653;1231;58937;-73
2023/07/11 06:06:18;;;;;;;6.80;6.20;;;;;;;;;;112593;1229;60768;-71
2023/07/11 06:08:44;;;;;;;7.30;6.60;;;;;;;;;;112642;1231;58837;-73
2023/07/11 06:11:10;;;;;;;6.70;6.20;;;;;;;;;;112596;1230;58954;-72
2023/07/11 06:13:37;;;;;;;7.50;6.70;;;;;;;;;;112578;1229;58875;-72
2023/07/11 06:16:04;;;;;;;8.60;6.20;;;;;;;;;;112693;1230;59735;-73
2023/07/11 06:18:33;;;;;;;6.00;5.50;;;;;;;;;;112583;1231;61840;-70
2023/07/11 06:20:58;;;;;;;6.70;5.90;;;;;;;;;;112587;1230;58956;-71
2023/07/11 06:23:24;;;;;;;6.60;6.00;;;;;;;;;;112629;1231;58932;-71
2023/07/11 06:25:50;;;;;;;9.50;6.80;;;;;;;;;;112592;1230;58898;-72
2023/07/11 06:28:15;;;;;;;7.10;6.40;;;;;;;;;;112601;1231;58965;-72
2023/07/11 06:30:42;;;;;;;6.30;5.80;;;;;;;;;;112619;1229;59032;-72
2023/07/11 06:33:11;;;;;;;7.30;6.10;;;;;;;;;;112611;1231;58952;-71
2023/07/11 06:35:37;;;;;;;6.70;6.00;;;;;;;;;;112208;1230;59070;-71
2023/07/11 06:38:03;;;;;;;6.10;5.60;;;;;;;;;;112561;1231;59256;-72
2023/07/11 06:40:29;;;;;;;7.30;6.50;;;;;;;;;;112187;1230;59039;-71
2023/07/11 06:42:55;;;;;;;5.80;5.30;;;;;;;;;;112638;1230;58868;-72
2023/07/11 06:45:21;;;;;;;6.60;6.10;;;;;;;;;;112608;1230;59052;-72
2023/07/11 06:47:46;;;;;;;6.60;5.90;;;;;;;;;;112591;1231;58965;-72
2023/07/11 06:50:12;;;;;;;5.90;5.40;;;;;;;;;;112672;1230;59126;-71
2023/07/11 06:52:39;;;;;;;7.10;6.20;;;;;;;;;;112582;1230;61907;-72
2023/07/11 06:55:05;;;;;;;5.60;5.10;;;;;;;;;;112562;1230;58825;-71
2023/07/11 06:57:30;;;;;;;6.20;5.10;;;;;;;;;;112616;1230;59038;-72
2023/07/11 06:59:56;;;;;;;8.80;5.60;;;;;;;;;;112610;1230;58953;-72
2023/07/11 07:02:22;;;;;;;8.80;5.80;;;;;;;;;;112592;1229;59168;-72
2023/07/11 07:04:48;;;;;;;6.10;4.90;;;;;;;;;;112711;1230;58932;-72
2023/07/11 07:07:14;;;;;;;7.40;5.80;;;;;;;;;;112704;1230;58901;-72
2023/07/11 07:09:39;;;;;;;8.40;5.70;;;;;;;;;;112632;1229;58965;-72
2023/07/11 07:12:05;;;;;;;5.90;5.40;;;;;;;;;;112620;1230;58925;-71
2023/07/11 07:14:31;;;;;;;5.80;5.20;;;;;;;;;;112598;1230;58938;-72
2023/07/11 07:16:57;;;;;;;5.30;4.80;;;;;;;;;;112593;1231;58806;-71
2023/07/11 07:19:22;;;;;;;8.50;4.90;;;;;;;;;;112353;1231;59003;-72
2023/07/11 07:21:48;;;;;;;5.80;5.10;;;;;;;;;;112629;1230;58961;-72
2023/07/11 07:24:14;;;;;;;5.30;4.80;;;;;;;;;;112599;1230;58957;-72
2023/07/11 07:26:41;;;;;;;6.00;5.00;;;;;;;;;;112661;1231;58830;-71
2023/07/11 07:29:07;;;;;;;14.40;5.10;;;;;;;;;;112612;1230;59047;-71
2023/07/11 07:31:33;;;;;;;6.10;4.80;;;;;;;;;;112600;1230;58913;-77
2023/07/11 07:33:58;;;;;;;5.90;5.20;;;;;;;;;;112286;1231;59096;-72
2023/07/11 07:36:24;;;;;;;5.30;4.80;;;;;;;;;;112628;1230;58964;-72
2023/07/11 07:38:50;;;;;;;6.20;4.70;;;;;;;;;;112476;1230;151875;-71
2023/07/11 07:41:16;;;;;;;5.90;4.60;;;;;;;;;;112582;1230;58968;-72
2023/07/11 07:43:45;;;;;;;4.50;4.20;;;;;;;;;;112599;1230;58971;-70
2023/07/11 07:46:15;;;;;;;7.30;4.40;;;;;;;;;;112616;1229;58840;-72
2023/07/11 07:48:40;;;;;;;;;;;;;;;;;;112655;1229;61955;-71
2023/07/11 07:51:16;;;;;;;9.00;5.60;;;;;;;;;;112636;1230;59191;-72
2023/07/11 07:53:42;;;;;;;5.70;5.10;;;;;;;;;;112153;1230;58942;-72
2023/07/11 07:56:10;;;;;;;5.10;4.70;;;;;;;;;;112607;1230;58981;-72
2023/07/11 07:58:35;;;;;;;4.40;3.90;;;;;;;;;;112636;1229;58973;-72
2023/07/11 08:01:03;;;;;;;5.00;4.60;;;;;;;;;;112563;1230;58980;-72
2023/07/11 08:03:30;;;;;;;5.10;4.60;;;;;;;;;;112574;1230;58894;-72
2023/07/11 08:05:56;;;;;;;5.50;5.00;;;;;;;;;;112574;1230;58941;-72
2023/07/11 08:08:22;;;;;;;5.00;4.10;;;;;;;;;;112272;1230;58911;-71
2023/07/11 08:10:47;;;;;;;4.90;4.40;;;;;;;;;;112596;1230;58932;-72
2023/07/11 08:13:13;;;;;;;5.10;4.50;;;;;;;;;;112643;1230;59340;-72
2023/07/11 08:15:42;;;;;;;8.50;4.60;;;;;;;;;;112661;1230;59135;-72
2023/07/11 08:18:08;;;;;;;5.20;4.40;;;;;;;;;;112609;1229;58920;-72
2023/07/11 08:20:34;;;;;;;6.30;4.40;;;;;;;;;;112610;1230;58894;-72
2023/07/11 08:23:00;;;;;;;5.80;4.80;;;;;;;;;;112642;1229;59064;-72
2023/07/11 08:25:25;;;;;;;5.90;4.50;;;;;;;;;;112649;1231;59327;-70
2023/07/11 08:27:51;;;;;;;4.90;4.50;;;;;;;;;;112595;1230;58969;-70
2023/07/11 08:30:17;;;;;;;5.40;3.60;;;;;;;;;;112620;1230;58956;-71
2023/07/11 08:32:43;;;;;;;4.70;4.20;;;;;;;;;;112692;1230;58918;-71
2023/07/11 08:35:08;;;;;;;5.30;4.50;;;;;;;;;;112565;1231;61916;-71
2023/07/11 08:37:34;;;;;;;4.30;3.90;;;;;;;;;;112271;1229;59130;-72
2023/07/11 08:40:01;;;;;;;5.70;4.60;;;;;;;;;;112606;1229;58947;-72
2023/07/11 08:42:40;;;;;;;4.90;4.50;;;;;;;;;;112574;1229;58923;-72
2023/07/11 08:45:26;;;;;;;4.60;4.20;;;;;;;;;;112594;1230;58880;-72
2023/07/11 08:47:55;;;;;;;5.40;4.00;;;;;;;;;;112593;1230;62061;-72
2023/07/11 08:50:25;;;;;;;7.20;4.10;;;;;;;;;;112656;1229;58888;-71
2023/07/11 08:52:57;;;;;;;5.10;4.30;;;;;;;;;;112584;1230;59330;-70
2023/07/11 08:55:25;;;;;;;5.20;3.90;;;;;;;;;;112579;1230;58908;-72
2023/07/11 08:58:14;;;;;;;5.60;4.00;;;;;;;;;;112633;1230;59036;-72
2023/07/11 09:00:41;;;;;;;4.50;4.20;;;;;;;;;;111857;1237;60869;-71
2023/07/11 09:03:11;;;;;;;7.00;4.90;;;;;;;;;;111842;1239;58905;-72
2023/07/11 09:05:53;;;;;;;4.80;4.40;;;;;;;;;;111598;1237;60714;-73
2023/07/11 09:08:20;;;;;;;5.20;3.70;;;;;;;;;;111861;1237;59050;-71
2023/07/11 09:10:58;;;;;;;3.80;3.30;;;;;;;;;;111831;1237;59038;-71
2023/07/11 09:13:42;;;;;;;4.20;3.40;;;;;;;;;;111582;1242;60720;-71
2023/07/11 09:16:08;;;;;;;4.20;3.30;;;;;;;;;;111845;1240;58914;-71
2023/07/11 09:18:59;;;;;;;3.90;3.30;;;;;;;;;;111801;1237;59199;-71
2023/07/11 09:21:28;;;;;;;4.80;3.30;;;;;;;;;;111826;1236;58977;-71
2023/07/11 09:24:00;;;;;;;3.90;3.50;;;;;;;;;;111901;1237;59061;-71
2023/07/11 09:26:29;;;;;;;3.70;3.40;;;;;;;;;;111817;1236;60579;-71
2023/07/11 09:29:00;;;;;;;3.70;3.30;;;;;;;;;;111832;1237;59411;-71
2023/07/11 09:31:27;;;;;;;3.90;3.40;;;;;;;;;;111811;1237;59686;-72
2023/07/11 09:33:54;;;;;;;4.60;4.10;;;;;;;;;;111801;1237;58986;-72
2023/07/11 09:36:30;;;;;;;3.70;3.40;;;;;;;;;;111754;1237;59026;-71
2023/07/11 09:39:13;;;;;;;4.30;3.70;;;;;;;;;;112050;1231;62932;-71
2023/07/11 09:41:45;;;;;;;4.10;3.80;;;;;;;;;;112627;1230;59267;-72
2023/07/11 09:44:11;;;;;;;6.20;3.10;;;;;;;;;;112597;1230;59751;-72
2023/07/11 09:46:37;;;;;;;5.00;3.00;;;;;;;;;;112622;1231;58866;-71
2023/07/11 09:49:04;;;;;;;3.50;3.10;;;;;;;;;;112648;1230;58923;-71
2023/07/11 09:51:36;;;;;;;3.80;3.00;;;;;;;;;;112626;1229;58996;-72
2023/07/11 09:54:04;;;;;;;5.50;3.50;;;;;;;;;;112598;1230;58946;-72
2023/07/11 09:56:41;;;;;;;4.20;3.90;;;;;;;;;;112552;1230;59165;-72
2023/07/11 09:59:10;;;;;;;4.50;3.60;;;;;;;;;;112576;1229;58823;-72
2023/07/11 10:01:38;;;;;;;5.20;3.40;;;;;;;;;;112593;1230;58954;-71
2023/07/11 10:04:08;;;;;;;3.80;3.50;;;;;;;;;;112594;1230;60612;-71
2023/07/11 10:06:38;;;;;;;6.80;3.60;;;;;;;;;;112619;1231;58908;-72
2023/07/11 10:09:04;;;;;;;;;;;;;;;;;;112611;1231;58997;-71
2023/07/11 10:11:29;;;;;;;3.90;3.60;;;;;;;;;;112583;1229;59105;-71
2023/07/11 10:13:56;;;;;;;5.50;3.80;;;;;;;;;;112612;1230;58941;-71
2023/07/11 10:16:22;;;;;;;3.80;3.50;;;;;;;;;;112674;1230;58921;-72
2023/07/11 10:18:48;;;;;;;4.40;3.60;;;;;;;;;;112594;1231;58883;-72
2023/07/11 10:21:23;;;;;;;4.40;3.50;;;;;;;;;;112572;1231;59045;-72
2023/07/11 10:23:50;;;;;;;4.80;3.80;;;;;;;;;;112633;1231;58877;-71
2023/07/11 10:26:21;;;;;;;4.00;3.40;;;;;;;;;;112624;1229;58829;-72
2023/07/11 10:29:13;;;;;;;4.90;3.10;;;;;;;;;;112609;1231;61732;-72
2023/07/11 10:31:49;;;;;;;3.40;3.10;;;;;;;;;;111823;1237;58994;-72
2023/07/11 10:34:19;;;;;;;7.10;4.40;;;;;;;;;;111799;1237;59542;-72
2023/07/11 10:36:47;;;;;;;4.20;3.70;;;;;;;;;;111827;1237;58931;-72
2023/07/11 10:39:44;;;;;;;3.80;3.50;;;;;;;;;;111844;1237;58962;-71
2023/07/11 10:42:19;;;;;;;3.90;3.60;;;;;;;;;;111563;1242;61823;-72
2023/07/11 10:44:47;;;;;;;4.10;3.80;;;;;;;;;;111847;1237;58826;-71
2023/07/11 10:47:13;;;;;;;4.50;3.60;;;;;;;;;;111801;1237;60566;-70
2023/07/11 10:49:43;;;;;;;4.10;3.50;;;;;;;;;;111602;1237;59043;-71
2023/07/11 10:52:12;;;;;;;4.00;3.60;;;;;;;;;;111812;1237;59097;-71
2023/07/11 10:54:56;;;;;;;6.40;3.40;;;;;;;;;;111837;1237;60911;-71
2023/07/11 10:57:31;;;;;;;3.90;3.40;;;;;;;;;;111863;1237;58942;-72
2023/07/11 10:59:57;;;;;;;4.00;3.60;;;;;;;;;;111844;1237;58984;-71
2023/07/11 11:02:27;;;;;;;3.70;3.40;;;;;;;;;;111817;1237;59098;-71
2023/07/11 11:05:08;;;;;;;3.80;3.00;;;;;;;;;;111835;1237;58871;-71
2023/07/11 11:07:44;;;;;;;3.30;3.10;;;;;;;;;;111838;1237;61874;-71
2023/07/11 11:10:14;;;;;;;3.60;3.20;;;;;;;;;;112569;1232;58811;-71
2023/07/11 11:12:41;;;;;;;3.80;3.50;;;;;;;;;;112606;1230;59820;-71
2023/07/11 11:15:13;;;;;;;3.40;3.10;;;;;;;;;;112615;1229;58911;-72
2023/07/11 11:17:54;;;;;;;3.40;3.10;;;;;;;;;;112587;1229;58820;-72
2023/07/11 11:20:31;;;;;;;3.30;3.00;;;;;;;;;;112563;1230;61816;-72
2023/07/11 11:23:09;;;;;;;4.40;3.20;;;;;;;;;;112616;1230;58814;-70
2023/07/11 11:25:44;;;;;;;3.70;3.10;;;;;;;;;;112654;1230;59515;-71
2023/07/11 11:28:10;;;;;;;4.50;3.70;;;;;;;;;;112622;1230;58880;-72
2023/07/11 11:30:45;;;;;;;4.80;3.60;;;;;;;;;;112659;1230;58891;-71
2023/07/11 11:33:37;;;;;;;3.60;3.20;;;;;;;;;;112667;1230;62026;-73
2023/07/11 11:36:41;;;;;;;3.80;3.50;;;;;;;;;;112627;1230;58954;-73
2023/07/11 11:39:09;;;;;;;3.80;3.40;;;;;;;;;;111632;1239;59790;-70
2023/07/11 11:41:42;;;;;;;3.60;3.30;;;;;;;;;;111826;1237;59324;-71
2023/07/11 11:44:17;;;;;;;3.90;3.60;;;;;;;;;;111838;1237;58989;-70
2023/07/11 11:46:44;;;;;;;4.10;3.30;;;;;;;;;;111800;1237;61789;-72
2023/07/11 11:49:11;;;;;;;3.60;3.30;;;;;;;;;;111820;1237;58977;-71
2023/07/11 11:51:37;;;;;;;4.10;3.00;;;;;;;;;;111792;1237;59597;-71
2023/07/11 11:54:15;;;;;;;3.70;3.40;;;;;;;;;;111819;1237;59099;-71
2023/07/11 11:56:43;;;;;;;3.20;3.00;;;;;;;;;;111826;1237;58855;-72
2023/07/11 11:59:15;;;;;;;3.50;3.20;;;;;;;;;;111778;1236;61721;-71
2023/07/11 12:01:52;;;;;;;4.00;3.00;;;;;;;;;;111836;1237;59018;-72
2023/07/11 12:04:33;;;;;;;2.90;2.70;;;;;;;;;;111820;1237;59114;-71
2023/07/11 12:07:01;;;;;;;3.00;2.80;;;;;;;;;;111798;1237;59014;-72
2023/07/11 12:09:33;;;;;;;4.30;3.40;;;;;;;;;;111765;1231;59026;-72
2023/07/11 12:12:01;;;;;;;4.90;3.30;;;;;;;;;;112605;1229;61646;-73
2023/07/11 12:14:33;;;;;;;2.90;2.70;;;;;;;;;;112603;1230;59007;-72
2023/07/11 12:16:59;;;;;;;3.90;3.50;;;;;;;;;;112629;1229;59759;-72
2023/07/11 12:19:26;;;;;;;3.40;3.10;;;;;;;;;;112589;1230;58954;-70
2023/07/11 12:21:56;;;;;;;2.90;2.70;;;;;;;;;;112594;1230;58991;-71
2023/07/11 12:24:22;;;;;;;3.00;2.80;;;;;;;;;;112621;1231;61821;-71
2023/07/11 12:26:49;;;;;;;2.80;2.50;;;;;;;;;;112627;1230;58885;-71
2023/07/11 12:29:33;;;;;;;4.80;2.90;;;;;;;;;;112611;1230;59093;-73
2023/07/11 12:32:28;;;;;;;3.40;2.90;;;;;;;;;;112574;1230;58970;-71
2023/07/11 12:34:54;;;;;;;3.30;2.80;;;;;;;;;;112642;1230;58820;-72
2023/07/11 12:37:20;;;;;;;3.50;3.20;;;;;;;;;;112316;1230;58995;-72
2023/07/11 12:39:53;;;;;;;3.10;2.80;;;;;;;;;;112621;1230;59329;-72
2023/07/11 12:42:22;;;;;;;3.80;3.40;;;;;;;;;;112553;1229;60648;-72
2023/07/11 12:44:47;;;;;;;3.60;3.10;;;;;;;;;;112536;1230;58947;-72
2023/07/11 12:47:15;;;;;;;3.90;3.10;;;;;;;;;;112548;1230;58938;-70
2023/07/11 12:49:42;;;;;;;3.20;2.90;;;;;;;;;;112600;1230;60736;-71
2023/07/11 12:52:12;;;;;;;3.10;2.80;;;;;;;;;;112430;1229;58777;-71
2023/07/11 12:54:39;;;;;;;2.90;2.50;;;;;;;;;;112672;1230;58898;-71
2023/07/11 12:57:11;;;;;;;3.00;2.80;;;;;;;;;;112564;1229;58988;-71
2023/07/11 12:59:37;;;;;;;3.40;3.10;;;;;;;;;;112611;1229;58790;-71
2023/07/11 13:02:04;;;;;;;2.60;2.30;;;;;;;;;;112626;1230;59167;-71
2023/07/11 13:04:46;;;;;;;3.10;2.90;;;;;;;;;;112594;1230;58942;-72
2023/07/11 13:07:11;;;;;;;2.80;2.60;;;;;;;;;;112573;1231;58845;-72
2023/07/11 13:09:42;;;;;;;3.30;2.70;;;;;;;;;;112525;1231;58958;-72
2023/07/11 13:12:10;;;;;;;3.40;3.10;;;;;;;;;;112576;1230;58857;-72
2023/07/11 13:14:36;;;;;;;4.20;2.80;;;;;;;;;;112573;1230;60639;-72
2023/07/11 13:17:02;;;;;;;3.40;3.10;;;;;;;;;;112590;1230;58912;-72
2023/07/11 13:19:27;;;;;;;3.30;3.00;;;;;;;;;;112561;1230;58903;-72
2023/07/11 13:21:53;;;;;;;4.30;2.60;;;;;;;;;;112616;1230;58945;-72
2023/07/11 13:24:25;;;;;;;3.30;3.00;;;;;;;;;;112590;1230;58821;-72
2023/07/11 13:26:51;;;;;;;3.10;2.80;;;;;;;;;;112594;1231;60483;-72
2023/07/11 13:29:18;;;;;;;3.30;3.00;;;;;;;;;;112575;1231;58968;-71
2023/07/11 13:31:45;;;;;;;2.50;2.30;;;;;;;;;;112323;1230;59030;-72
2023/07/11 13:34:11;;;;;;;3.50;2.60;;;;;;;;;;112570;1231;59188;-72
2023/07/11 13:36:39;;;;;;;3.40;2.80;;;;;;;;;;112363;1230;58982;-73
2023/07/11 13:39:07;;;;;;;2.70;2.50;;;;;;;;;;112171;1231;60572;-71
2023/07/11 13:41:35;;;;;;;4.50;2.80;;;;;;;;;;112603;1230;58887;-71
2023/07/11 13:44:04;;;;;;;2.40;2.20;;;;;;;;;;112618;1231;58716;-71
2023/07/11 13:46:30;;;;;;;3.70;3.00;;;;;;;;;;112625;1231;58944;-71
2023/07/11 13:49:06;;;;;;;3.10;2.80;;;;;;;;;;112585;1230;59009;-71
2023/07/11 13:51:34;;;;;;;3.30;2.80;;;;;;;;;;112588;1231;61967;-71
2023/07/11 13:54:06;;;;;;;3.00;2.60;;;;;;;;;;112597;1231;59759;-71
2023/07/11 13:56:31;;;;;;;3.10;2.40;;;;;;;;;;112582;1230;58928;-71
2023/07/11 13:58:57;;;;;;;4.10;2.60;;;;;;;;;;112597;1230;59011;-72
2023/07/11 14:01:23;;;;;;;3.50;2.60;;;;;;;;;;112687;1231;58953;-70
2023/07/11 14:03:52;;;;;;;2.40;2.20;;;;;;;;;;112317;1231;59043;-71
2023/07/11 14:06:19;;;;;;;2.50;2.30;;;;;;;;;;112591;1230;58874;-70
2023/07/11 14:08:45;;;;;;;3.40;2.30;;;;;;;;;;112613;1229;59655;-71
2023/07/11 14:11:25;;;;;;;4.80;2.90;;;;;;;;;;112562;1229;59040;-71
2023/07/11 14:13:51;;;;;;;;;;;;;;;;;;112582;1231;58821;-71
2023/07/11 14:16:16;;;;;;;2.90;2.30;;;;;;;;;;112585;1231;58964;-71
2023/07/11 14:18:42;;;;;;;2.90;2.70;;;;;;;;;;112633;1230;58896;-71
2023/07/11 14:21:15;;;;;;;3.60;2.60;;;;;;;;;;112580;1231;59242;-71
2023/07/11 14:23:40;;;;;;;3.20;2.90;;;;;;;;;;112560;1229;58908;-72
2023/07/11 14:26:06;;;;;;;2.80;2.60;;;;;;;;;;112600;1231;58841;-71